createdAt,value
2023-04-16T00:04:06.600Z,100021.47
2023-04-16T00:09:12.473Z,100016.41
2023-04-16T00:14:17.724Z,100020.59
2023-04-16T00:19:22.799Z,100032.03
2023-04-16T00:24:27.862Z,100030.00
2023-04-16T00:29:34.715Z,100032.84
2023-04-16T00:34:39.799Z,100031.13
2023-04-16T00:39:44.577Z,100035.63
2023-04-16T00:44:49.662Z,100040.50
2023-04-16T00:49:54.728Z,100043.69
2023-04-16T00:55:00.256Z,100048.84
2023-04-16T01:00:05.529Z,100047.88
2023-04-16T01:05:10.874Z,100060.41
2023-04-16T01:10:17.348Z,100051.22
2023-04-16T01:15:22.335Z,100047.16
2023-04-16T01:20:29.200Z,100045.88
2023-04-16T01:25:33.948Z,100037.88
2023-04-16T01:30:38.735Z,100036.31
2023-04-16T01:36:15.566Z,100025.63
2023-04-16T01:41:20.639Z,100021.75
2023-04-16T01:46:34.791Z,100003.94
2023-04-16T01:51:39.806Z,100011.31
2023-04-16T01:56:44.723Z,100022.97
2023-04-16T02:01:50.324Z,100015.59
2023-04-16T02:06:55.498Z,100006.28
2023-04-16T02:12:00.405Z,100005.19
2023-04-16T02:17:06.539Z,99986.00
2023-04-16T02:22:16.484Z,99981.16
2023-04-16T02:27:22.066Z,99981.69
2023-04-16T02:32:31.839Z,99969.78
2023-04-16T02:37:37.177Z,99952.22
2023-04-16T02:42:41.940Z,99947.50
2023-04-16T02:47:47.248Z,99949.13
2023-04-16T02:52:52.804Z,99930.97
2023-04-16T02:57:59.120Z,99915.38
2023-04-16T03:03:04.263Z,99915.69
2023-04-16T03:08:09.586Z,99899.03
2023-04-16T03:13:15.684Z,99900.34
2023-04-16T03:18:22.598Z,99876.09
2023-04-16T03:23:27.799Z,99866.91
2023-04-16T03:28:32.790Z,99873.53
2023-04-16T03:33:38.465Z,99857.19
2023-04-16T03:38:43.561Z,99851.13
2023-04-16T03:43:48.741Z,99838.09
2023-04-16T03:48:54.152Z,99820.66
2023-04-16T03:53:59.718Z,99807.44
2023-04-16T03:59:05.697Z,99787.41
2023-04-16T04:04:11.610Z,99795.50
2023-04-16T04:09:17.768Z,99794.03
2023-04-16T04:14:23.317Z,99806.34
2023-04-16T04:19:28.147Z,99785.09
2023-04-16T04:24:33.449Z,99776.69
2023-04-16T04:29:38.899Z,99765.38
2023-04-16T04:34:44.147Z,99767.25
2023-04-16T04:39:49.397Z,99764.00
2023-04-16T04:44:54.852Z,99758.00
2023-04-16T04:50:01.101Z,99740.88
2023-04-16T04:55:07.733Z,99722.19
2023-04-16T05:00:13.824Z,99725.66
2023-04-16T05:05:29.774Z,99718.13
2023-04-16T05:10:34.748Z,99726.94
2023-04-16T05:15:40.002Z,99730.41
2023-04-16T05:20:45.082Z,99698.19
2023-04-16T05:25:50.172Z,99690.78
2023-04-16T05:30:55.192Z,99681.38
2023-04-16T05:36:00.088Z,99716.69
2023-04-16T05:41:05.310Z,99674.09
2023-04-16T05:46:11.576Z,99667.06
2023-04-16T05:51:16.753Z,99648.69
2023-04-16T05:56:24.064Z,99648.19
2023-04-16T06:01:29.147Z,99636.13
2023-04-16T06:06:34.396Z,99633.75
2023-04-16T06:11:39.509Z,99628.66
2023-04-16T06:16:44.637Z,99618.22
2023-04-16T06:21:50.836Z,99602.94
2023-04-16T06:26:56.107Z,99600.84
2023-04-16T06:32:01.156Z,99603.28
2023-04-16T06:37:07.793Z,99603.03
2023-04-16T06:42:14.480Z,99591.19
2023-04-16T06:47:19.514Z,99590.38
2023-04-16T06:52:24.556Z,99589.84
2023-04-16T06:57:29.523Z,99590.41
2023-04-16T07:02:34.798Z,99574.75
2023-04-16T07:07:40.516Z,99582.31
2023-04-16T07:12:45.925Z,99552.34
2023-04-16T07:17:50.949Z,99548.03
2023-04-16T07:22:55.140Z,99541.03
2023-04-16T07:28:01.433Z,99535.88
2023-04-16T07:33:06.655Z,99555.31
2023-04-16T07:38:11.915Z,99538.56
2023-04-16T07:43:18.971Z,99537.41
2023-04-16T07:48:24.496Z,99536.63
2023-04-16T07:53:29.781Z,99534.19
2023-04-16T07:58:34.418Z,99515.56
2023-04-16T08:03:39.752Z,99516.66
2023-04-16T08:08:44.860Z,99501.81
2023-04-16T08:13:50.015Z,99495.34
2023-04-16T08:18:56.270Z,99504.47
2023-04-16T08:24:01.325Z,99483.84
2023-04-16T08:29:06.620Z,99467.38
2023-04-16T08:34:12.787Z,99463.94
2023-04-16T08:39:18.105Z,99466.16
2023-04-16T08:44:29.144Z,99461.88
2023-04-16T08:49:38.356Z,99477.03
2023-04-16T08:55:11.157Z,99498.38
2023-04-16T09:00:17.808Z,99498.94
2023-04-16T09:05:27.034Z,99496.22
2023-04-16T09:10:32.864Z,99513.19
2023-04-16T09:15:39.146Z,99505.56
2023-04-16T09:20:44.893Z,99505.50
2023-04-16T09:25:50.418Z,99514.63
2023-04-16T09:31:19.834Z,99495.72
2023-04-16T09:36:29.684Z,99515.22
2023-04-16T09:41:41.051Z,99539.66
2023-04-16T09:46:46.898Z,99513.66
2023-04-16T09:51:58.285Z,99536.88
2023-04-16T09:57:03.896Z,99535.63
2023-04-16T10:02:15.886Z,99538.34
2023-04-16T10:07:22.422Z,99540.31
2023-04-16T10:12:31.927Z,99553.25
2023-04-16T10:17:38.898Z,99545.97
2023-04-16T10:22:45.592Z,99550.03
2023-04-16T10:27:51.926Z,99551.75
2023-04-16T10:33:00.196Z,99548.22
2023-04-16T10:38:26.762Z,99549.84
2023-04-16T10:43:47.059Z,99554.69
2023-04-16T10:48:57.584Z,99572.41
2023-04-16T10:54:20.800Z,99586.00
2023-04-16T10:59:27.830Z,99581.66
2023-04-16T11:04:38.134Z,99584.59
2023-04-16T11:09:49.717Z,99575.09
2023-04-16T11:14:59.896Z,99588.75
2023-04-16T11:20:17.421Z,99606.31
2023-04-16T11:25:31.372Z,99619.63
2023-04-16T11:30:40.168Z,99619.75
2023-04-16T11:35:47.426Z,99627.31
2023-04-16T11:40:53.567Z,99636.50
2023-04-16T11:46:10.301Z,99644.31
2023-04-16T11:51:25.192Z,99662.56
2023-04-16T11:56:33.214Z,99671.63
2023-04-16T12:01:41.122Z,99674.34
2023-04-16T12:07:09.377Z,99681.66
2023-04-16T12:12:33.224Z,99678.06
2023-04-16T12:17:40.257Z,99684.19
2023-04-16T12:22:50.973Z,99682.28
2023-04-16T12:27:58.076Z,99682.97
2023-04-16T12:33:20.714Z,99696.63
2023-04-16T12:38:27.257Z,99700.09
2023-04-16T12:43:33.989Z,99704.09
2023-04-16T12:48:39.588Z,99703.94
2023-04-16T12:53:45.021Z,99736.91
2023-04-16T12:58:53.240Z,99717.63
2023-04-16T13:04:00.322Z,99718.97
2023-04-16T13:09:06.454Z,99724.34
2023-04-16T13:14:11.906Z,99729.72
2023-04-16T13:19:17.620Z,99730.69
2023-04-16T13:24:23.166Z,99729.72
2023-04-16T13:29:28.923Z,99738.47
2023-04-16T13:34:34.794Z,99746.19
2023-04-16T13:39:40.487Z,99759.19
2023-04-16T13:44:50.277Z,99751.88
2023-04-16T13:49:55.718Z,99750.94
2023-04-16T13:55:01.434Z,99756.56
2023-04-16T14:00:07.592Z,99756.59
2023-04-16T14:05:13.593Z,99754.78
2023-04-16T14:10:19.690Z,99770.63
2023-04-16T14:15:28.974Z,99770.22
2023-04-16T14:20:34.805Z,99774.16
2023-04-16T14:25:41.815Z,99774.81
2023-04-16T14:30:47.369Z,99779.56
2023-04-16T14:35:53.254Z,99790.06
2023-04-16T14:41:00.183Z,99799.94
2023-04-16T14:46:08.273Z,99808.94
2023-04-16T14:51:14.138Z,99809.81
2023-04-16T14:56:19.654Z,99808.56
2023-04-16T15:01:25.414Z,99814.75
2023-04-16T15:06:32.494Z,99819.88
2023-04-16T15:11:38.285Z,99824.41
2023-04-16T15:16:45.609Z,99860.06
2023-04-16T15:21:54.757Z,99836.53
2023-04-16T15:27:01.808Z,99843.50
2023-04-16T15:32:08.461Z,99850.69
2023-04-16T15:37:14.349Z,99864.41
2023-04-16T15:42:19.852Z,99869.56
2023-04-16T15:47:25.664Z,99862.78
2023-04-16T15:52:31.504Z,99874.66
2023-04-16T15:57:37.341Z,99872.59
2023-04-16T16:02:43.607Z,99875.06
2023-04-16T16:07:50.790Z,99875.88
2023-04-16T16:12:56.218Z,99892.22
2023-04-16T16:18:02.224Z,99885.06
2023-04-16T16:23:06.766Z,99880.13
2023-04-16T16:28:12.148Z,99882.75
2023-04-16T16:33:17.718Z,99882.13
2023-04-16T16:38:24.035Z,99888.47
2023-04-16T16:43:29.363Z,99879.44
2023-04-16T16:48:34.885Z,99877.75
2023-04-16T16:53:40.253Z,99885.09
2023-04-16T16:58:45.417Z,99885.06
2023-04-16T17:03:50.893Z,99889.31
2023-04-16T17:08:56.219Z,99877.03
2023-04-16T17:14:01.736Z,99864.94
2023-04-16T17:19:07.136Z,99860.00
2023-04-16T17:24:12.716Z,99857.94
2023-04-16T17:29:17.788Z,99857.88
2023-04-16T17:34:23.834Z,99852.34
2023-04-16T17:39:29.031Z,99848.41
2023-04-16T17:44:34.276Z,99858.00
2023-04-16T17:49:39.680Z,99860.84
2023-04-16T17:54:44.734Z,99856.66
2023-04-16T17:59:49.931Z,99881.53
2023-04-16T18:04:56.325Z,99850.84
2023-04-16T18:10:01.588Z,99848.13
2023-04-16T18:15:08.392Z,99843.41
2023-04-16T18:20:13.764Z,99828.69
2023-04-16T18:25:25.613Z,99830.47
2023-04-16T18:30:40.259Z,99837.75
2023-04-16T18:35:45.860Z,99833.00
2023-04-16T18:40:52.217Z,99820.13
2023-04-16T18:45:57.465Z,99813.19
2023-04-16T18:51:02.621Z,99818.50
2023-04-16T18:56:07.862Z,99825.84
2023-04-16T19:01:14.937Z,99817.66
2023-04-16T19:06:20.544Z,99815.59
2023-04-16T19:11:25.553Z,99816.53
2023-04-16T19:16:31.134Z,99833.47
2023-04-16T19:21:36.961Z,99834.66
2023-04-16T19:26:41.772Z,99832.59
2023-04-16T19:31:48.453Z,99838.09
2023-04-16T19:36:53.316Z,99835.88
2023-04-16T19:41:58.186Z,99844.66
2023-04-16T19:47:03.282Z,99842.00
2023-04-16T19:52:10.256Z,99833.78
2023-04-16T19:57:15.430Z,99828.03
2023-04-16T20:02:20.656Z,99851.66
2023-04-16T20:07:25.650Z,99823.31
2023-04-16T20:12:30.631Z,99829.59
2023-04-16T20:17:35.692Z,99822.19
2023-04-16T20:22:41.146Z,99828.91
2023-04-16T20:27:46.323Z,99830.09
2023-04-16T20:32:51.372Z,99823.97
2023-04-16T20:37:56.576Z,99823.53
2023-04-16T20:43:01.999Z,99821.72
2023-04-16T20:48:07.552Z,99849.47
2023-04-16T20:53:14.354Z,99853.56
2023-04-16T20:58:19.293Z,99835.22
2023-04-16T21:03:24.336Z,99824.38
2023-04-16T21:08:29.691Z,99814.81
2023-04-16T21:13:36.325Z,99812.53
2023-04-16T21:18:41.321Z,99811.09
2023-04-16T21:23:47.618Z,99803.34
2023-04-16T21:28:55.078Z,99840.19
2023-04-16T21:34:00.319Z,99813.06
2023-04-16T21:39:05.477Z,99810.78
2023-04-16T21:44:11.574Z,99802.56
2023-04-16T21:49:16.428Z,99814.16
2023-04-16T21:54:21.862Z,99809.38
2023-04-16T21:59:26.816Z,99816.53
2023-04-16T22:04:38.561Z,99841.19
2023-04-16T22:09:43.661Z,99840.81
2023-04-16T22:14:59.763Z,99843.09
2023-04-16T22:20:13.750Z,99847.38
2023-04-16T22:25:19.801Z,99855.16
2023-04-16T22:30:24.705Z,99864.84
2023-04-16T22:35:29.478Z,99875.34
2023-04-16T22:40:34.616Z,99868.28
2023-04-16T22:45:39.288Z,99884.06
2023-04-16T22:50:49.824Z,99884.59
2023-04-16T22:55:54.800Z,99897.69
2023-04-16T23:01:00.611Z,99889.19
2023-04-16T23:06:05.391Z,99903.50
2023-04-16T23:11:10.446Z,99894.63
2023-04-16T23:16:15.281Z,99884.69
2023-04-16T23:21:20.204Z,99891.69
2023-04-16T23:26:25.251Z,99874.56
2023-04-16T23:31:30.427Z,99877.97
2023-04-16T23:36:35.223Z,99876.22
2023-04-16T23:41:40.183Z,99874.88
2023-04-16T23:46:45.178Z,99871.50
2023-04-16T23:51:51.232Z,99903.03
2023-04-16T23:56:57.022Z,99865.25
